sensor_id;sensor_type;location;lat;lon;timestamp;P1;durP1;ratioP1;P2;durP2;ratioP2
33716;SDS011;20046;50.746;7.072;2024-03-23T00:54:09;53.67;;;20.52;;
33716;SDS011;20046;50.746;7.072;2024-03-23T00:56:35;45.53;;;19.90;;
33716;SDS011;20046;50.746;7.072;2024-03-23T00:59:01;42.50;;;19.27;;
33716;SDS011;20046;50.746;7.072;2024-03-23T01:01:26;41.35;;;18.70;;
33716;SDS011;20046;50.746;7.072;2024-03-23T01:03:52;47.88;;;20.33;;
33716;SDS011;20046;50.746;7.072;2024-03-23T01:06:17;52.58;;;20.27;;
33716;SDS011;20046;50.746;7.072;2024-03-23T01:08:43;48.67;;;23.60;;
33716;SDS011;20046;50.746;7.072;2024-03-23T01:11:09;60.22;;;22.65;;
33716;SDS011;20046;50.746;7.072;2024-03-23T01:13:34;53.05;;;23.33;;
33716;SDS011;20046;50.746;7.072;2024-03-23T01:16:00;63.38;;;24.08;;
33716;SDS011;20046;50.746;7.072;2024-03-23T01:18:26;47.78;;;21.20;;
33716;SDS011;20046;50.746;7.072;2024-03-23T01:20:52;55.25;;;21.33;;
33716;SDS011;20046;50.746;7.072;2024-03-23T01:23:17;55.30;;;21.35;;
33716;SDS011;20046;50.746;7.072;2024-03-23T01:25:43;51.65;;;20.75;;
33716;SDS011;20046;50.746;7.072;2024-03-23T01:28:08;52.33;;;20.90;;
33716;SDS011;20046;50.746;7.072;2024-03-23T01:30:34;44.20;;;18.45;;
33716;SDS011;20046;50.746;7.072;2024-03-23T01:33:01;51.33;;;20.20;;
33716;SDS011;20046;50.746;7.072;2024-03-23T01:35:30;45.65;;;18.40;;
33716;SDS011;20046;50.746;7.072;2024-03-23T01:37:55;42.08;;;17.50;;
33716;SDS011;20046;50.746;7.072;2024-03-23T01:40:21;43.38;;;18.00;;
33716;SDS011;20046;50.746;7.072;2024-03-23T01:42:56;44.47;;;18.05;;
33716;SDS011;20046;50.746;7.072;2024-03-23T01:45:22;44.70;;;17.92;;
33716;SDS011;20046;50.746;7.072;2024-03-23T01:47:49;49.65;;;18.85;;
33716;SDS011;20046;50.746;7.072;2024-03-23T01:50:20;52.15;;;17.83;;
33716;SDS011;20046;50.746;7.072;2024-03-23T01:52:46;50.30;;;19.83;;
33716;SDS011;20046;50.746;7.072;2024-03-23T01:55:13;45.85;;;18.73;;
33716;SDS011;20046;50.746;7.072;2024-03-23T01:57:39;41.40;;;17.63;;
33716;SDS011;20046;50.746;7.072;2024-03-23T02:00:05;45.05;;;18.27;;
33716;SDS011;20046;50.746;7.072;2024-03-23T02:02:31;48.20;;;17.95;;
33716;SDS011;20046;50.746;7.072;2024-03-23T02:04:57;47.25;;;18.15;;
33716;SDS011;20046;50.746;7.072;2024-03-23T02:07:23;46.90;;;18.60;;
33716;SDS011;20046;50.746;7.072;2024-03-23T02:09:50;35.90;;;13.55;;
33716;SDS011;20046;50.746;7.072;2024-03-23T02:12:16;27.35;;;11.45;;
33716;SDS011;20046;50.746;7.072;2024-03-23T02:14:42;25.48;;;9.98;;
33716;SDS011;20046;50.746;7.072;2024-03-23T02:17:08;20.58;;;9.20;;
33716;SDS011;20046;50.746;7.072;2024-03-23T02:19:34;18.38;;;9.15;;
33716;SDS011;20046;50.746;7.072;2024-03-23T02:22:00;18.55;;;9.18;;
33716;SDS011;20046;50.746;7.072;2024-03-23T02:24:26;17.65;;;9.68;;
33716;SDS011;20046;50.746;7.072;2024-03-23T02:26:51;28.65;;;11.48;;
33716;SDS011;20046;50.746;7.072;2024-03-23T02:29:17;22.83;;;11.45;;
33716;SDS011;20046;50.746;7.072;2024-03-23T02:31:42;26.27;;;13.57;;
33716;SDS011;20046;50.746;7.072;2024-03-23T02:34:08;28.98;;;13.45;;
33716;SDS011;20046;50.746;7.072;2024-03-23T02:36:34;27.60;;;13.57;;
33716;SDS011;20046;50.746;7.072;2024-03-23T02:38:59;30.70;;;13.32;;
33716;SDS011;20046;50.746;7.072;2024-03-23T02:41:25;30.42;;;13.63;;
33716;SDS011;20046;50.746;7.072;2024-03-23T02:43:50;28.10;;;12.52;;
33716;SDS011;20046;50.746;7.072;2024-03-23T02:46:16;29.65;;;14.10;;
33716;SDS011;20046;50.746;7.072;2024-03-23T02:48:41;27.75;;;13.20;;
33716;SDS011;20046;50.746;7.072;2024-03-23T02:51:07;25.60;;;12.65;;
33716;SDS011;20046;50.746;7.072;2024-03-23T02:53:33;64.13;;;27.48;;
33716;SDS011;20046;50.746;7.072;2024-03-23T02:55:59;58.45;;;30.00;;
33716;SDS011;20046;50.746;7.072;2024-03-23T02:58:25;31.70;;;12.60;;
33716;SDS011;20046;50.746;7.072;2024-03-23T03:00:50;26.75;;;10.20;;
33716;SDS011;20046;50.746;7.072;2024-03-23T03:03:16;19.08;;;8.10;;
33716;SDS011;20046;50.746;7.072;2024-03-23T03:05:41;15.00;;;7.25;;
33716;SDS011;20046;50.746;7.072;2024-03-23T03:08:07;10.82;;;3.78;;
33716;SDS011;20046;50.746;7.072;2024-03-23T03:10:33;8.38;;;2.92;;
33716;SDS011;20046;50.746;7.072;2024-03-23T03:13:01;6.78;;;2.25;;
33716;SDS011;20046;50.746;7.072;2024-03-23T03:15:27;13.65;;;3.05;;
33716;SDS011;20046;50.746;7.072;2024-03-23T03:17:52;5.78;;;2.30;;
33716;SDS011;20046;50.746;7.072;2024-03-23T03:20:18;8.30;;;2.65;;
33716;SDS011;20046;50.746;7.072;2024-03-23T03:22:48;9.80;;;2.92;;
33716;SDS011;20046;50.746;7.072;2024-03-23T03:25:14;10.88;;;2.53;;
33716;SDS011;20046;50.746;7.072;2024-03-23T03:27:39;12.68;;;2.72;;
33716;SDS011;20046;50.746;7.072;2024-03-23T03:30:05;9.55;;;2.70;;
33716;SDS011;20046;50.746;7.072;2024-03-23T03:32:33;10.80;;;3.15;;
33716;SDS011;20046;50.746;7.072;2024-03-23T03:34:59;17.45;;;3.10;;
33716;SDS011;20046;50.746;7.072;2024-03-23T03:37:24;10.07;;;3.25;;
33716;SDS011;20046;50.746;7.072;2024-03-23T03:39:50;9.68;;;2.70;;
33716;SDS011;20046;50.746;7.072;2024-03-23T03:42:16;19.75;;;3.20;;
33716;SDS011;20046;50.746;7.072;2024-03-23T03:44:41;11.40;;;3.00;;
33716;SDS011;20046;50.746;7.072;2024-03-23T03:47:07;12.57;;;2.60;;
33716;SDS011;20046;50.746;7.072;2024-03-23T03:49:32;13.13;;;3.00;;
33716;SDS011;20046;50.746;7.072;2024-03-23T03:51:58;13.15;;;3.45;;
33716;SDS011;20046;50.746;7.072;2024-03-23T03:54:26;12.43;;;3.72;;
33716;SDS011;20046;50.746;7.072;2024-03-23T03:56:51;13.40;;;3.47;;
33716;SDS011;20046;50.746;7.072;2024-03-23T03:59:17;13.45;;;3.30;;
33716;SDS011;20046;50.746;7.072;2024-03-23T04:01:42;17.83;;;3.00;;
33716;SDS011;20046;50.746;7.072;2024-03-23T04:04:08;15.55;;;3.63;;
33716;SDS011;20046;50.746;7.072;2024-03-23T04:06:33;23.05;;;3.22;;
33716;SDS011;20046;50.746;7.072;2024-03-23T04:09:00;17.48;;;3.47;;
33716;SDS011;20046;50.746;7.072;2024-03-23T04:11:26;14.00;;;3.38;;
33716;SDS011;20046;50.746;7.072;2024-03-23T04:13:51;15.27;;;3.78;;
33716;SDS011;20046;50.746;7.072;2024-03-23T04:16:26;19.65;;;4.50;;
33716;SDS011;20046;50.746;7.072;2024-03-23T04:18:59;17.63;;;3.78;;
33716;SDS011;20046;50.746;7.072;2024-03-23T04:21:25;15.10;;;3.80;;
33716;SDS011;20046;50.746;7.072;2024-03-23T04:23:50;15.25;;;3.65;;
33716;SDS011;20046;50.746;7.072;2024-03-23T04:26:16;17.00;;;3.13;;
33716;SDS011;20046;50.746;7.072;2024-03-23T04:28:42;17.35;;;3.97;;
33716;SDS011;20046;50.746;7.072;2024-03-23T04:31:08;14.45;;;3.75;;
33716;SDS011;20046;50.746;7.072;2024-03-23T04:33:34;13.65;;;3.30;;
33716;SDS011;20046;50.746;7.072;2024-03-23T04:35:59;15.68;;;3.67;;
33716;SDS011;20046;50.746;7.072;2024-03-23T04:38:25;14.82;;;3.15;;
33716;SDS011;20046;50.746;7.072;2024-03-23T04:40:55;14.85;;;2.92;;
33716;SDS011;20046;50.746;7.072;2024-03-23T04:43:21;25.88;;;3.92;;
33716;SDS011;20046;50.746;7.072;2024-03-23T04:45:46;9.23;;;2.55;;
33716;SDS011;20046;50.746;7.072;2024-03-23T04:48:12;13.80;;;2.95;;
33716;SDS011;20046;50.746;7.072;2024-03-23T04:50:37;17.90;;;3.20;;
33716;SDS011;20046;50.746;7.072;2024-03-23T04:53:03;16.85;;;3.90;;
33716;SDS011;20046;50.746;7.072;2024-03-23T04:55:29;16.45;;;3.47;;
33716;SDS011;20046;50.746;7.072;2024-03-23T04:57:56;23.30;;;4.47;;
33716;SDS011;20046;50.746;7.072;2024-03-23T05:00:21;16.67;;;3.22;;
33716;SDS011;20046;50.746;7.072;2024-03-23T05:02:48;27.20;;;4.50;;
33716;SDS011;20046;50.746;7.072;2024-03-23T05:05:14;17.35;;;3.28;;
33716;SDS011;20046;50.746;7.072;2024-03-23T05:07:39;14.70;;;3.33;;
33716;SDS011;20046;50.746;7.072;2024-03-23T05:10:06;20.25;;;3.97;;
33716;SDS011;20046;50.746;7.072;2024-03-23T05:12:36;18.05;;;3.08;;
33716;SDS011;20046;50.746;7.072;2024-03-23T05:15:02;16.35;;;3.45;;
33716;SDS011;20046;50.746;7.072;2024-03-23T05:17:29;17.60;;;4.40;;
33716;SDS011;20046;50.746;7.072;2024-03-23T05:19:56;9.00;;;2.78;;
33716;SDS011;20046;50.746;7.072;2024-03-23T05:22:22;24.45;;;3.95;;
33716;SDS011;20046;50.746;7.072;2024-03-23T05:24:47;21.30;;;2.67;;
33716;SDS011;20046;50.746;7.072;2024-03-23T05:27:13;16.95;;;3.38;;
33716;SDS011;20046;50.746;7.072;2024-03-23T05:29:39;22.65;;;3.60;;
33716;SDS011;20046;50.746;7.072;2024-03-23T05:32:05;22.33;;;3.97;;
33716;SDS011;20046;50.746;7.072;2024-03-23T05:34:31;14.82;;;3.55;;
33716;SDS011;20046;50.746;7.072;2024-03-23T05:36:57;19.30;;;3.00;;
33716;SDS011;20046;50.746;7.072;2024-03-23T05:39:22;19.25;;;3.22;;
33716;SDS011;20046;50.746;7.072;2024-03-23T05:41:48;14.38;;;3.28;;
33716;SDS011;20046;50.746;7.072;2024-03-23T05:44:14;14.90;;;2.85;;
33716;SDS011;20046;50.746;7.072;2024-03-23T05:46:40;19.08;;;3.38;;
33716;SDS011;20046;50.746;7.072;2024-03-23T05:49:06;13.00;;;2.70;;
33716;SDS011;20046;50.746;7.072;2024-03-23T05:51:32;13.10;;;3.58;;
33716;SDS011;20046;50.746;7.072;2024-03-23T05:53:58;21.75;;;3.30;;
33716;SDS011;20046;50.746;7.072;2024-03-23T05:56:24;21.38;;;3.00;;
33716;SDS011;20046;50.746;7.072;2024-03-23T05:58:51;15.18;;;2.97;;
33716;SDS011;20046;50.746;7.072;2024-03-23T06:01:16;21.35;;;2.95;;
33716;SDS011;20046;50.746;7.072;2024-03-23T06:03:42;18.90;;;3.17;;
33716;SDS011;20046;50.746;7.072;2024-03-23T06:06:08;17.85;;;3.20;;
33716;SDS011;20046;50.746;7.072;2024-03-23T06:08:36;20.02;;;3.58;;
33716;SDS011;20046;50.746;7.072;2024-03-23T06:11:03;16.77;;;3.17;;
33716;SDS011;20046;50.746;7.072;2024-03-23T06:13:31;17.92;;;3.20;;
33716;SDS011;20046;50.746;7.072;2024-03-23T06:15:57;18.10;;;2.97;;
33716;SDS011;20046;50.746;7.072;2024-03-23T06:18:23;11.63;;;3.80;;
33716;SDS011;20046;50.746;7.072;2024-03-23T06:20:49;17.90;;;3.42;;
33716;SDS011;20046;50.746;7.072;2024-03-23T06:23:14;18.48;;;3.67;;
33716;SDS011;20046;50.746;7.072;2024-03-23T06:25:42;15.13;;;3.63;;
33716;SDS011;20046;50.746;7.072;2024-03-23T06:28:08;23.02;;;4.28;;
33716;SDS011;20046;50.746;7.072;2024-03-23T06:30:33;17.67;;;3.55;;
33716;SDS011;20046;50.746;7.072;2024-03-23T06:32:59;23.67;;;3.28;;
33716;SDS011;20046;50.746;7.072;2024-03-23T06:35:25;15.73;;;3.40;;
33716;SDS011;20046;50.746;7.072;2024-03-23T06:37:50;26.40;;;3.60;;
33716;SDS011;20046;50.746;7.072;2024-03-23T06:40:16;15.27;;;2.88;;
33716;SDS011;20046;50.746;7.072;2024-03-23T06:42:41;19.35;;;4.60;;
33716;SDS011;20046;50.746;7.072;2024-03-23T06:45:07;21.70;;;4.15;;
33716;SDS011;20046;50.746;7.072;2024-03-23T06:47:33;14.88;;;3.78;;
33716;SDS011;20046;50.746;7.072;2024-03-23T06:49:59;18.13;;;3.78;;
33716;SDS011;20046;50.746;7.072;2024-03-23T06:52:28;15.55;;;3.90;;
33716;SDS011;20046;50.746;7.072;2024-03-23T06:54:54;14.88;;;3.40;;
33716;SDS011;20046;50.746;7.072;2024-03-23T06:57:20;16.27;;;3.95;;
33716;SDS011;20046;50.746;7.072;2024-03-23T06:59:47;11.93;;;3.08;;
33716;SDS011;20046;50.746;7.072;2024-03-23T07:02:12;15.15;;;3.50;;
33716;SDS011;20046;50.746;7.072;2024-03-23T07:04:38;14.48;;;3.88;;
33716;SDS011;20046;50.746;7.072;2024-03-23T07:07:06;14.27;;;3.83;;
33716;SDS011;20046;50.746;7.072;2024-03-23T07:09:32;12.00;;;3.47;;
33716;SDS011;20046;50.746;7.072;2024-03-23T07:11:58;10.45;;;2.95;;
33716;SDS011;20046;50.746;7.072;2024-03-23T07:14:24;17.45;;;3.22;;
33716;SDS011;20046;50.746;7.072;2024-03-23T07:16:50;13.10;;;3.45;;
33716;SDS011;20046;50.746;7.072;2024-03-23T07:19:16;21.85;;;3.28;;
33716;SDS011;20046;50.746;7.072;2024-03-23T07:21:42;19.50;;;3.90;;
33716;SDS011;20046;50.746;7.072;2024-03-23T07:24:08;18.90;;;3.25;;
33716;SDS011;20046;50.746;7.072;2024-03-23T07:26:34;16.17;;;3.55;;
33716;SDS011;20046;50.746;7.072;2024-03-23T07:29:00;14.65;;;3.28;;
33716;SDS011;20046;50.746;7.072;2024-03-23T07:31:25;12.77;;;3.63;;
33716;SDS011;20046;50.746;7.072;2024-03-23T07:33:51;12.60;;;3.58;;
33716;SDS011;20046;50.746;7.072;2024-03-23T07:36:16;14.68;;;3.38;;
33716;SDS011;20046;50.746;7.072;2024-03-23T07:38:42;15.95;;;4.25;;
33716;SDS011;20046;50.746;7.072;2024-03-23T07:41:14;14.50;;;3.78;;
33716;SDS011;20046;50.746;7.072;2024-03-23T07:43:42;12.98;;;3.38;;
33716;SDS011;20046;50.746;7.072;2024-03-23T07:46:08;18.38;;;4.20;;
33716;SDS011;20046;50.746;7.072;2024-03-23T07:48:34;15.43;;;4.22;;
33716;SDS011;20046;50.746;7.072;2024-03-23T07:51:07;19.77;;;4.75;;
33716;SDS011;20046;50.746;7.072;2024-03-23T07:53:34;12.43;;;4.22;;
33716;SDS011;20046;50.746;7.072;2024-03-23T07:56:05;18.83;;;4.32;;
33716;SDS011;20046;50.746;7.072;2024-03-23T07:58:32;20.52;;;4.70;;
33716;SDS011;20046;50.746;7.072;2024-03-23T08:01:04;21.52;;;4.55;;
33716;SDS011;20046;50.746;7.072;2024-03-23T08:03:33;18.70;;;4.45;;
33716;SDS011;20046;50.746;7.072;2024-03-23T08:06:06;16.25;;;4.85;;
33716;SDS011;20046;50.746;7.072;2024-03-23T08:08:35;19.67;;;4.60;;
33716;SDS011;20046;50.746;7.072;2024-03-23T08:11:01;22.35;;;5.13;;
33716;SDS011;20046;50.746;7.072;2024-03-23T08:13:27;12.45;;;4.00;;
33716;SDS011;20046;50.746;7.072;2024-03-23T08:15:56;10.88;;;3.28;;
33716;SDS011;20046;50.746;7.072;2024-03-23T08:18:22;7.35;;;2.00;;
33716;SDS011;20046;50.746;7.072;2024-03-23T08:20:54;5.55;;;2.08;;
33716;SDS011;20046;50.746;7.072;2024-03-23T08:23:24;10.60;;;1.85;;
33716;SDS011;20046;50.746;7.072;2024-03-23T08:25:51;15.95;;;2.10;;
33716;SDS011;20046;50.746;7.072;2024-03-23T08:28:17;8.48;;;1.88;;
33716;SDS011;20046;50.746;7.072;2024-03-23T08:30:42;10.68;;;1.95;;
33716;SDS011;20046;50.746;7.072;2024-03-23T08:33:08;5.72;;;1.70;;
33716;SDS011;20046;50.746;7.072;2024-03-23T08:35:34;9.48;;;2.00;;
33716;SDS011;20046;50.746;7.072;2024-03-23T08:37:59;8.48;;;1.90;;
33716;SDS011;20046;50.746;7.072;2024-03-23T08:40:25;8.95;;;2.13;;
33716;SDS011;20046;50.746;7.072;2024-03-23T08:42:51;9.77;;;1.80;;
33716;SDS011;20046;50.746;7.072;2024-03-23T08:45:16;8.93;;;2.05;;
33716;SDS011;20046;50.746;7.072;2024-03-23T08:47:42;7.63;;;2.10;;
33716;SDS011;20046;50.746;7.072;2024-03-23T08:50:07;10.82;;;2.25;;
33716;SDS011;20046;50.746;7.072;2024-03-23T08:52:33;7.85;;;2.28;;
33716;SDS011;20046;50.746;7.072;2024-03-23T08:54:59;9.73;;;2.97;;
33716;SDS011;20046;50.746;7.072;2024-03-23T08:57:25;12.85;;;3.53;;
33716;SDS011;20046;50.746;7.072;2024-03-23T08:59:50;13.23;;;3.78;;
33716;SDS011;20046;50.746;7.072;2024-03-23T09:02:16;10.55;;;3.40;;
33716;SDS011;20046;50.746;7.072;2024-03-23T09:04:41;10.10;;;3.92;;
33716;SDS011;20046;50.746;7.072;2024-03-23T09:07:07;12.13;;;4.68;;
33716;SDS011;20046;50.746;7.072;2024-03-23T09:09:33;12.93;;;4.07;;
33716;SDS011;20046;50.746;7.072;2024-03-23T09:11:58;17.27;;;4.72;;
33716;SDS011;20046;50.746;7.072;2024-03-23T09:14:24;23.65;;;5.65;;
33716;SDS011;20046;50.746;7.072;2024-03-23T09:16:50;15.90;;;5.80;;
33716;SDS011;20046;50.746;7.072;2024-03-23T09:19:16;18.00;;;5.32;;
33716;SDS011;20046;50.746;7.072;2024-03-23T09:21:42;24.20;;;5.55;;
33716;SDS011;20046;50.746;7.072;2024-03-23T09:24:08;16.42;;;5.18;;
33716;SDS011;20046;50.746;7.072;2024-03-23T09:26:33;18.65;;;5.45;;
33716;SDS011;20046;50.746;7.072;2024-03-23T09:28:59;18.75;;;4.47;;
33716;SDS011;20046;50.746;7.072;2024-03-23T09:31:25;15.18;;;3.40;;
33716;SDS011;20046;50.746;7.072;2024-03-23T09:33:50;15.88;;;3.67;;
33716;SDS011;20046;50.746;7.072;2024-03-23T09:36:16;11.70;;;3.22;;
33716;SDS011;20046;50.746;7.072;2024-03-23T09:38:41;10.95;;;3.03;;
33716;SDS011;20046;50.746;7.072;2024-03-23T09:41:07;15.73;;;3.47;;
33716;SDS011;20046;50.746;7.072;2024-03-23T09:43:34;19.73;;;3.35;;
33716;SDS011;20046;50.746;7.072;2024-03-23T09:46:01;12.55;;;2.67;;
33716;SDS011;20046;50.746;7.072;2024-03-23T09:48:27;17.02;;;3.45;;
33716;SDS011;20046;50.746;7.072;2024-03-23T09:50:53;11.50;;;2.70;;
33716;SDS011;20046;50.746;7.072;2024-03-23T09:53:19;11.00;;;2.40;;
33716;SDS011;20046;50.746;7.072;2024-03-23T09:55:44;11.95;;;2.58;;
33716;SDS011;20046;50.746;7.072;2024-03-23T09:58:13;11.43;;;2.72;;
33716;SDS011;20046;50.746;7.072;2024-03-23T10:00:41;13.35;;;2.70;;
33716;SDS011;20046;50.746;7.072;2024-03-23T10:03:06;13.95;;;3.00;;
33716;SDS011;20046;50.746;7.072;2024-03-23T10:05:33;13.23;;;2.75;;
33716;SDS011;20046;50.746;7.072;2024-03-23T10:07:59;13.88;;;2.95;;
33716;SDS011;20046;50.746;7.072;2024-03-23T10:10:41;15.32;;;2.83;;
33716;SDS011;20046;50.746;7.072;2024-03-23T10:13:07;9.98;;;2.33;;
33716;SDS011;20046;50.746;7.072;2024-03-23T10:15:34;13.40;;;2.63;;
33716;SDS011;20046;50.746;7.072;2024-03-23T10:20:50;9.07;;;2.47;;
33716;SDS011;20046;50.746;7.072;2024-03-23T10:23:17;9.73;;;2.47;;
33716;SDS011;20046;50.746;7.072;2024-03-23T10:25:43;9.00;;;3.03;;
33716;SDS011;20046;50.746;7.072;2024-03-23T10:28:09;6.85;;;2.15;;
33716;SDS011;20046;50.746;7.072;2024-03-23T10:30:36;6.35;;;2.15;;
33716;SDS011;20046;50.746;7.072;2024-03-23T10:33:11;11.43;;;1.92;;
33716;SDS011;20046;50.746;7.072;2024-03-23T10:35:37;4.68;;;1.67;;
33716;SDS011;20046;50.746;7.072;2024-03-23T10:38:04;4.90;;;1.30;;
33716;SDS011;20046;50.746;7.072;2024-03-23T10:40:31;4.63;;;1.20;;
33716;SDS011;20046;50.746;7.072;2024-03-23T10:43:00;5.30;;;1.20;;
33716;SDS011;20046;50.746;7.072;2024-03-23T10:45:25;3.40;;;1.00;;
33716;SDS011;20046;50.746;7.072;2024-03-23T10:47:51;3.42;;;0.70;;
33716;SDS011;20046;50.746;7.072;2024-03-23T10:50:17;2.78;;;0.90;;
33716;SDS011;20046;50.746;7.072;2024-03-23T10:52:47;1.45;;;0.63;;
33716;SDS011;20046;50.746;7.072;2024-03-23T10:55:14;1.55;;;0.52;;
33716;SDS011;20046;50.746;7.072;2024-03-23T10:57:48;1.20;;;0.70;;
33716;SDS011;20046;50.746;7.072;2024-03-23T11:00:17;1.45;;;0.77;;
33716;SDS011;20046;50.746;7.072;2024-03-23T11:02:43;3.65;;;0.70;;
33716;SDS011;20046;50.746;7.072;2024-03-23T11:05:27;3.15;;;0.80;;
33716;SDS011;20046;50.746;7.072;2024-03-23T11:07:54;1.75;;;0.77;;
33716;SDS011;20046;50.746;7.072;2024-03-23T11:10:24;2.53;;;0.80;;
33716;SDS011;20046;50.746;7.072;2024-03-23T11:12:55;2.17;;;1.00;;
33716;SDS011;20046;50.746;7.072;2024-03-23T11:15:41;4.78;;;1.50;;
33716;SDS011;20046;50.746;7.072;2024-03-23T11:18:07;6.65;;;1.63;;
33716;SDS011;20046;50.746;7.072;2024-03-23T11:20:36;5.53;;;1.95;;
33716;SDS011;20046;50.746;7.072;2024-03-23T11:23:02;5.82;;;1.40;;
33716;SDS011;20046;50.746;7.072;2024-03-23T11:25:29;4.80;;;1.90;;
33716;SDS011;20046;50.746;7.072;2024-03-23T11:27:55;6.18;;;2.60;;
33716;SDS011;20046;50.746;7.072;2024-03-23T11:30:25;7.75;;;2.22;;
33716;SDS011;20046;50.746;7.072;2024-03-23T11:32:54;8.00;;;2.00;;
33716;SDS011;20046;50.746;7.072;2024-03-23T11:35:29;5.18;;;1.70;;
33716;SDS011;20046;50.746;7.072;2024-03-23T11:40:27;2.72;;;1.20;;
33716;SDS011;20046;50.746;7.072;2024-03-23T11:42:56;4.45;;;1.30;;
33716;SDS011;20046;50.746;7.072;2024-03-23T11:45:26;3.78;;;1.30;;
33716;SDS011;20046;50.746;7.072;2024-03-23T11:50:57;4.78;;;1.30;;
33716;SDS011;20046;50.746;7.072;2024-03-23T11:53:23;5.13;;;1.42;;
33716;SDS011;20046;50.746;7.072;2024-03-23T11:55:53;8.10;;;2.42;;
33716;SDS011;20046;50.746;7.072;2024-03-23T11:58:19;7.10;;;2.20;;
33716;SDS011;20046;50.746;7.072;2024-03-23T12:00:49;9.55;;;3.42;;
33716;SDS011;20046;50.746;7.072;2024-03-23T12:03:28;11.50;;;3.35;;
33716;SDS011;20046;50.746;7.072;2024-03-23T12:05:55;11.95;;;3.75;;
33716;SDS011;20046;50.746;7.072;2024-03-23T12:08:30;7.75;;;2.75;;
33716;SDS011;20046;50.746;7.072;2024-03-23T12:11:21;8.20;;;2.75;;
33716;SDS011;20046;50.746;7.072;2024-03-23T12:13:47;8.40;;;2.50;;
33716;SDS011;20046;50.746;7.072;2024-03-23T12:16:20;6.20;;;2.10;;
33716;SDS011;20046;50.746;7.072;2024-03-23T12:18:49;5.85;;;2.40;;
33716;SDS011;20046;50.746;7.072;2024-03-23T12:21:19;4.95;;;2.20;;
33716;SDS011;20046;50.746;7.072;2024-03-23T12:23:47;5.45;;;2.30;;
33716;SDS011;20046;50.746;7.072;2024-03-23T12:26:15;13.88;;;3.22;;
33716;SDS011;20046;50.746;7.072;2024-03-23T12:28:42;9.02;;;3.25;;
33716;SDS011;20046;50.746;7.072;2024-03-23T12:31:08;9.50;;;3.28;;
33716;SDS011;20046;50.746;7.072;2024-03-23T12:33:33;6.68;;;2.80;;
33716;SDS011;20046;50.746;7.072;2024-03-23T12:35:59;7.35;;;2.55;;
33716;SDS011;20046;50.746;7.072;2024-03-23T12:38:24;8.10;;;2.50;;
33716;SDS011;20046;50.746;7.072;2024-03-23T12:40:50;10.10;;;2.53;;
33716;SDS011;20046;50.746;7.072;2024-03-23T12:43:16;9.15;;;3.35;;
33716;SDS011;20046;50.746;7.072;2024-03-23T12:45:49;6.65;;;2.35;;
33716;SDS011;20046;50.746;7.072;2024-03-23T12:48:15;9.23;;;1.80;;
33716;SDS011;20046;50.746;7.072;2024-03-23T12:50:43;4.80;;;1.63;;
33716;SDS011;20046;50.746;7.072;2024-03-23T12:53:09;1.58;;;0.93;;
33716;SDS011;20046;50.746;7.072;2024-03-23T12:55:35;4.07;;;1.42;;
33716;SDS011;20046;50.746;7.072;2024-03-23T12:58:00;6.13;;;1.05;;
33716;SDS011;20046;50.746;7.072;2024-03-23T13:00:26;2.08;;;0.85;;
33716;SDS011;20046;50.746;7.072;2024-03-23T13:02:52;5.00;;;1.05;;
33716;SDS011;20046;50.746;7.072;2024-03-23T13:05:17;1.90;;;0.98;;
33716;SDS011;20046;50.746;7.072;2024-03-23T13:07:43;4.18;;;1.23;;
33716;SDS011;20046;50.746;7.072;2024-03-23T13:10:08;4.80;;;1.52;;
33716;SDS011;20046;50.746;7.072;2024-03-23T13:12:34;3.42;;;0.90;;
33716;SDS011;20046;50.746;7.072;2024-03-23T13:15:00;2.38;;;1.10;;
33716;SDS011;20046;50.746;7.072;2024-03-23T13:17:26;3.38;;;1.42;;
33716;SDS011;20046;50.746;7.072;2024-03-23T13:19:52;3.05;;;1.00;;
33716;SDS011;20046;50.746;7.072;2024-03-23T13:22:18;1.80;;;0.82;;
33716;SDS011;20046;50.746;7.072;2024-03-23T13:24:44;2.67;;;0.90;;
33716;SDS011;20046;50.746;7.072;2024-03-23T13:27:10;2.95;;;1.10;;
33716;SDS011;20046;50.746;7.072;2024-03-23T13:29:36;3.47;;;0.80;;
33716;SDS011;20046;50.746;7.072;2024-03-23T13:32:02;3.20;;;1.20;;
33716;SDS011;20046;50.746;7.072;2024-03-23T13:34:28;2.40;;;0.88;;
33716;SDS011;20046;50.746;7.072;2024-03-23T13:36:54;2.00;;;0.93;;
33716;SDS011;20046;50.746;7.072;2024-03-23T13:39:23;5.10;;;1.13;;
33716;SDS011;20046;50.746;7.072;2024-03-23T13:41:48;4.38;;;1.08;;
33716;SDS011;20046;50.746;7.072;2024-03-23T13:44:14;1.90;;;0.63;;
33716;SDS011;20046;50.746;7.072;2024-03-23T13:46:41;4.53;;;1.00;;
33716;SDS011;20046;50.746;7.072;2024-03-23T13:49:07;2.08;;;1.10;;
33716;SDS011;20046;50.746;7.072;2024-03-23T13:51:45;4.03;;;1.33;;
33716;SDS011;20046;50.746;7.072;2024-03-23T13:54:11;4.07;;;1.17;;
33716;SDS011;20046;50.746;7.072;2024-03-23T13:56:37;4.03;;;1.20;;
33716;SDS011;20046;50.746;7.072;2024-03-23T13:59:02;6.65;;;1.30;;
33716;SDS011;20046;50.746;7.072;2024-03-23T14:01:28;4.60;;;1.77;;
33716;SDS011;20046;50.746;7.072;2024-03-23T14:03:54;6.05;;;1.50;;
33716;SDS011;20046;50.746;7.072;2024-03-23T14:06:20;6.95;;;1.70;;
33716;SDS011;20046;50.746;7.072;2024-03-23T14:08:46;5.88;;;1.52;;
33716;SDS011;20046;50.746;7.072;2024-03-23T14:11:14;6.30;;;2.10;;
33716;SDS011;20046;50.746;7.072;2024-03-23T14:13:40;7.50;;;2.03;;
33716;SDS011;20046;50.746;7.072;2024-03-23T14:16:05;7.45;;;2.38;;
33716;SDS011;20046;50.746;7.072;2024-03-23T14:18:31;6.95;;;1.80;;
33716;SDS011;20046;50.746;7.072;2024-03-23T14:20:57;7.05;;;2.20;;
33716;SDS011;20046;50.746;7.072;2024-03-23T14:23:26;8.15;;;2.55;;
33716;SDS011;20046;50.746;7.072;2024-03-23T14:25:55;8.20;;;2.10;;
33716;SDS011;20046;50.746;7.072;2024-03-23T14:28:22;7.53;;;2.08;;
33716;SDS011;20046;50.746;7.072;2024-03-23T14:30:48;8.48;;;2.20;;
33716;SDS011;20046;50.746;7.072;2024-03-23T14:33:15;7.10;;;2.53;;
33716;SDS011;20046;50.746;7.072;2024-03-23T14:35:41;11.35;;;3.38;;
33716;SDS011;20046;50.746;7.072;2024-03-23T14:38:07;7.40;;;1.85;;
33716;SDS011;20046;50.746;7.072;2024-03-23T14:40:32;7.65;;;1.65;;
33716;SDS011;20046;50.746;7.072;2024-03-23T14:42:58;2.42;;;1.25;;
33716;SDS011;20046;50.746;7.072;2024-03-23T14:45:24;5.13;;;1.17;;
33716;SDS011;20046;50.746;7.072;2024-03-23T14:47:50;6.20;;;1.38;;
33716;SDS011;20046;50.746;7.072;2024-03-23T14:50:16;3.83;;;1.35;;
33716;SDS011;20046;50.746;7.072;2024-03-23T14:52:45;2.78;;;1.25;;
33716;SDS011;20046;50.746;7.072;2024-03-23T14:55:14;3.60;;;1.30;;
33716;SDS011;20046;50.746;7.072;2024-03-23T14:57:40;4.45;;;2.00;;
33716;SDS011;20046;50.746;7.072;2024-03-23T15:00:09;9.70;;;2.13;;
33716;SDS011;20046;50.746;7.072;2024-03-23T15:02:39;5.40;;;1.40;;
33716;SDS011;20046;50.746;7.072;2024-03-23T15:05:05;3.85;;;1.77;;
33716;SDS011;20046;50.746;7.072;2024-03-23T15:07:34;5.43;;;1.40;;
33716;SDS011;20046;50.746;7.072;2024-03-23T15:10:03;3.88;;;1.33;;
33716;SDS011;20046;50.746;7.072;2024-03-23T15:12:30;4.40;;;1.90;;
33716;SDS011;20046;50.746;7.072;2024-03-23T15:14:58;4.45;;;1.40;;
33716;SDS011;20046;50.746;7.072;2024-03-23T15:17:25;4.55;;;1.58;;
33716;SDS011;20046;50.746;7.072;2024-03-23T15:19:50;5.32;;;1.20;;
33716;SDS011;20046;50.746;7.072;2024-03-23T15:22:16;5.25;;;1.00;;
33716;SDS011;20046;50.746;7.072;2024-03-23T15:24:41;3.53;;;0.98;;
33716;SDS011;20046;50.746;7.072;2024-03-23T15:27:07;1.70;;;1.15;;
33716;SDS011;20046;50.746;7.072;2024-03-23T15:29:34;2.50;;;1.10;;
33716;SDS011;20046;50.746;7.072;2024-03-23T15:32:01;3.03;;;1.30;;
33716;SDS011;20046;50.746;7.072;2024-03-23T15:34:27;3.78;;;1.58;;
33716;SDS011;20046;50.746;7.072;2024-03-23T15:36:54;1.77;;;1.15;;